createdAt,value
2022-12-25T00:02:15.034Z,7.67
2022-12-25T00:04:41.666Z,7.65
2022-12-25T00:07:08.134Z,7.64
2022-12-25T00:09:34.565Z,7.61
2022-12-25T00:12:01.020Z,7.61
2022-12-25T00:14:27.480Z,7.59
2022-12-25T00:16:53.935Z,7.58
2022-12-25T00:19:20.436Z,7.56
2022-12-25T00:21:46.843Z,7.55
2022-12-25T00:24:13.294Z,7.56
2022-12-25T00:26:39.727Z,7.58
2022-12-25T00:29:06.171Z,7.59
2022-12-25T00:31:34.528Z,7.58
2022-12-25T00:34:01.084Z,7.58
2022-12-25T00:36:27.543Z,7.57
2022-12-25T00:38:54.109Z,7.59
2022-12-25T00:41:42.013Z,7.58
2022-12-25T00:44:10.805Z,7.59
2022-12-25T00:46:37.425Z,7.59
2022-12-25T00:49:03.953Z,7.59
2022-12-25T00:51:30.417Z,7.61
2022-12-25T00:53:57.097Z,7.61
2022-12-25T00:56:23.511Z,7.63
2022-12-25T00:58:50.045Z,7.64
2022-12-25T01:01:16.879Z,7.66
2022-12-25T01:03:43.613Z,7.69
2022-12-25T01:06:12.784Z,7.69
2022-12-25T01:09:00.042Z,7.72
2022-12-25T01:11:27.005Z,7.76
2022-12-25T01:13:53.542Z,7.80
2022-12-25T01:16:20.093Z,7.80
2022-12-25T01:18:46.705Z,7.81
2022-12-25T01:21:16.259Z,7.81
2022-12-25T01:23:43.816Z,7.80
2022-12-25T01:26:12.461Z,7.81
2022-12-25T01:28:39.875Z,7.82
2022-12-25T01:31:09.910Z,7.83
2022-12-25T01:33:36.389Z,7.85
2022-12-25T01:36:02.884Z,7.86
2022-12-25T01:38:29.299Z,7.88
2022-12-25T01:40:55.839Z,7.96
2022-12-25T01:43:27.279Z,7.98
2022-12-25T01:45:54.268Z,8.02
2022-12-25T01:48:28.073Z,8.06
2022-12-25T01:50:58.364Z,8.09
2022-12-25T01:53:26.346Z,8.14
2022-12-25T01:55:58.935Z,8.15
2022-12-25T01:58:25.913Z,8.17
2022-12-25T02:00:52.860Z,8.16
2022-12-25T02:03:21.213Z,8.16
2022-12-25T02:05:48.008Z,8.18
2022-12-25T02:08:16.432Z,8.18
2022-12-25T02:10:44.715Z,8.16
2022-12-25T02:13:18.047Z,8.18
2022-12-25T02:15:59.180Z,8.18
2022-12-25T02:18:51.810Z,8.17
2022-12-25T02:21:43.193Z,8.25
2022-12-25T02:24:37.989Z,8.28
2022-12-25T02:27:22.887Z,8.24
2022-12-25T02:30:02.969Z,8.23
2022-12-25T02:32:38.231Z,8.26
2022-12-25T02:35:10.848Z,8.27
2022-12-25T02:38:03.188Z,8.29
2022-12-25T02:40:39.580Z,8.29
2022-12-25T02:43:30.283Z,8.27
2022-12-25T02:46:22.796Z,8.26
2022-12-25T02:49:14.513Z,8.22
2022-12-25T02:52:05.419Z,8.25
2022-12-25T02:54:55.151Z,8.23
2022-12-25T02:57:45.725Z,8.22
2022-12-25T03:00:32.684Z,8.22
2022-12-25T03:03:21.134Z,8.28
2022-12-25T03:06:07.430Z,8.25
2022-12-25T03:08:41.736Z,8.25
2022-12-25T03:11:30.305Z,8.27
2022-12-25T03:14:24.353Z,8.26
2022-12-25T03:16:54.784Z,8.23
2022-12-25T03:19:43.406Z,8.29
2022-12-25T03:22:37.906Z,8.27
2022-12-25T03:25:23.213Z,8.29
2022-12-25T03:27:53.397Z,8.28
2022-12-25T03:30:40.206Z,8.29
2022-12-25T03:33:43.951Z,8.28
2022-12-25T03:36:14.860Z,8.27
2022-12-25T03:39:32.446Z,8.31
2022-12-25T03:42:21.832Z,8.32
2022-12-25T03:45:40.854Z,8.35
2022-12-25T03:48:12.868Z,8.36
2022-12-25T03:51:20.909Z,8.35
2022-12-25T03:54:12.472Z,8.32
2022-12-25T03:56:58.508Z,8.35
2022-12-25T03:59:43.213Z,8.33
2022-12-25T04:02:28.973Z,8.37
2022-12-25T04:05:14.227Z,8.38
2022-12-25T04:07:59.512Z,8.35
2022-12-25T04:10:44.420Z,8.36
2022-12-25T04:13:29.079Z,8.35
2022-12-25T04:16:14.617Z,8.35
2022-12-25T04:18:59.696Z,8.37
2022-12-25T04:21:45.570Z,8.39
2022-12-25T04:24:30.818Z,8.40
2022-12-25T04:27:16.251Z,8.43
2022-12-25T04:30:01.091Z,8.45
2022-12-25T04:32:46.344Z,8.42
2022-12-25T04:35:31.908Z,8.46
2022-12-25T04:37:58.367Z,8.49
2022-12-25T04:40:24.943Z,8.56
2022-12-25T04:42:52.259Z,8.53
2022-12-25T04:45:19.046Z,8.55
2022-12-25T04:47:45.556Z,8.56
2022-12-25T04:50:12.060Z,8.52
2022-12-25T04:52:40.424Z,8.58
2022-12-25T04:55:09.096Z,8.63
2022-12-25T04:57:36.648Z,8.63
2022-12-25T05:00:04.934Z,8.66
2022-12-25T05:02:31.979Z,8.71
2022-12-25T05:04:58.692Z,8.70
2022-12-25T05:07:25.163Z,8.70
2022-12-25T05:09:51.630Z,8.68
2022-12-25T05:12:18.160Z,8.72
2022-12-25T05:14:44.571Z,8.74
2022-12-25T05:17:11.086Z,8.74
2022-12-25T05:19:37.509Z,8.75
2022-12-25T05:22:03.945Z,8.78
2022-12-25T05:24:30.456Z,8.80
2022-12-25T05:26:56.893Z,8.84
2022-12-25T05:29:23.367Z,8.82
2022-12-25T05:31:49.891Z,8.78
2022-12-25T05:34:16.409Z,8.77
2022-12-25T05:36:42.920Z,8.77
2022-12-25T05:39:09.395Z,8.81
2022-12-25T05:41:35.852Z,8.77
2022-12-25T05:44:02.368Z,8.78
2022-12-25T05:46:28.854Z,8.75
2022-12-25T05:48:55.739Z,8.74
2022-12-25T05:51:22.314Z,8.69
2022-12-25T05:53:48.780Z,8.65
2022-12-25T05:56:15.256Z,8.63
2022-12-25T05:58:41.978Z,8.64
2022-12-25T06:01:14.988Z,8.59
2022-12-25T06:03:41.605Z,8.54
2022-12-25T06:06:08.275Z,8.57
2022-12-25T06:08:34.997Z,8.50
2022-12-25T06:11:06.593Z,8.46
2022-12-25T06:13:34.150Z,8.44
2022-12-25T06:16:07.851Z,8.41
2022-12-25T06:18:39.235Z,8.37
2022-12-25T06:21:07.702Z,8.36
2022-12-25T06:23:34.196Z,8.36
2022-12-25T06:26:04.235Z,8.38
2022-12-25T06:28:30.711Z,8.34
2022-12-25T06:30:57.195Z,8.32
2022-12-25T06:33:23.766Z,8.32
2022-12-25T06:35:50.257Z,8.31
2022-12-25T06:38:16.763Z,8.33
2022-12-25T06:40:43.192Z,8.35
2022-12-25T06:43:09.649Z,8.39
2022-12-25T06:45:36.147Z,8.39
2022-12-25T06:48:02.604Z,8.40
2022-12-25T06:50:29.078Z,8.41
2022-12-25T06:52:56.467Z,8.41
2022-12-25T06:55:22.877Z,8.40
2022-12-25T06:57:49.299Z,8.38
2022-12-25T07:00:15.865Z,8.38
2022-12-25T07:02:47.149Z,8.38
2022-12-25T07:05:13.665Z,8.39
2022-12-25T07:07:40.082Z,8.41
2022-12-25T07:10:07.268Z,8.38
2022-12-25T07:12:33.730Z,8.42
2022-12-25T07:15:00.154Z,8.43
2022-12-25T07:17:26.693Z,8.44
2022-12-25T07:19:53.251Z,8.50
2022-12-25T07:22:19.702Z,8.49
2022-12-25T07:24:46.223Z,8.54
2022-12-25T07:27:13.116Z,8.54
2022-12-25T07:29:39.600Z,8.56
2022-12-25T07:32:06.108Z,8.58
2022-12-25T07:34:32.720Z,8.57
2022-12-25T07:36:59.207Z,8.60
2022-12-25T07:39:25.649Z,8.61
2022-12-25T07:41:52.165Z,8.61
2022-12-25T07:44:18.799Z,8.57
2022-12-25T07:46:45.866Z,8.60
2022-12-25T07:49:12.606Z,8.66
2022-12-25T07:51:39.105Z,8.67
2022-12-25T07:54:05.740Z,8.68
2022-12-25T07:56:33.225Z,8.69
2022-12-25T07:58:59.685Z,8.70
2022-12-25T08:01:27.689Z,8.70
2022-12-25T08:03:57.370Z,8.70
2022-12-25T08:06:29.604Z,8.74
2022-12-25T08:08:57.638Z,8.78
2022-12-25T08:11:24.180Z,8.78
2022-12-25T08:13:50.705Z,8.79
2022-12-25T08:16:17.238Z,8.77
2022-12-25T08:18:44.389Z,8.80
2022-12-25T08:21:14.135Z,8.79
2022-12-25T08:23:45.993Z,8.82
2022-12-25T08:26:16.582Z,8.81
2022-12-25T08:28:43.330Z,8.80
2022-12-25T08:31:11.891Z,8.80
2022-12-25T08:33:38.829Z,8.81
2022-12-25T08:36:07.646Z,8.78
2022-12-25T08:38:34.209Z,8.82
2022-12-25T08:41:00.681Z,8.86
2022-12-25T08:43:27.194Z,8.90
2022-12-25T08:45:53.726Z,8.96
2022-12-25T08:48:20.255Z,8.96
2022-12-25T08:50:48.434Z,9.00
2022-12-25T08:53:15.495Z,9.04
2022-12-25T08:55:42.271Z,9.06
2022-12-25T08:58:09.114Z,9.01
2022-12-25T09:00:36.443Z,9.00
2022-12-25T09:03:04.090Z,9.01
2022-12-25T09:05:30.597Z,9.06
2022-12-25T09:07:57.024Z,9.08
2022-12-25T09:10:23.708Z,9.10
2022-12-25T09:12:50.125Z,9.10
2022-12-25T09:15:16.592Z,9.10
2022-12-25T09:17:43.009Z,9.11
2022-12-25T09:20:09.770Z,9.11
2022-12-25T09:22:36.194Z,9.09
2022-12-25T09:25:02.650Z,9.06
2022-12-25T09:27:29.118Z,9.09
2022-12-25T09:29:55.550Z,9.11
2022-12-25T09:32:22.101Z,9.07
2022-12-25T09:34:48.546Z,9.08
2022-12-25T09:37:15.161Z,9.01
2022-12-25T09:39:46.318Z,8.99
2022-12-25T09:42:22.901Z,8.99
2022-12-25T09:44:53.719Z,8.96
2022-12-25T09:47:25.477Z,8.95
2022-12-25T09:50:06.945Z,8.91
2022-12-25T09:52:40.451Z,8.93
2022-12-25T09:55:19.764Z,8.93
2022-12-25T09:57:51.797Z,8.90
2022-12-25T10:00:20.933Z,8.87
2022-12-25T10:02:53.825Z,8.88
2022-12-25T10:05:38.902Z,8.87
2022-12-25T10:08:17.455Z,8.88
2022-12-25T10:10:50.918Z,8.89
2022-12-25T10:13:50.152Z,8.88
2022-12-25T10:16:28.869Z,8.87
2022-12-25T10:19:10.579Z,8.92
2022-12-25T10:21:38.070Z,8.89
2022-12-25T10:24:31.298Z,8.92
2022-12-25T10:26:57.836Z,8.93
2022-12-25T10:29:24.381Z,8.95
2022-12-25T10:31:55.280Z,8.95
2022-12-25T10:34:23.362Z,8.98
2022-12-25T10:36:50.830Z,8.98
2022-12-25T10:39:25.534Z,9.01
2022-12-25T10:42:19.348Z,8.98
2022-12-25T10:44:57.705Z,9.02
2022-12-25T10:47:31.263Z,9.01
2022-12-25T10:49:59.187Z,9.03
2022-12-25T10:52:28.025Z,9.02
2022-12-25T10:54:55.247Z,9.00
2022-12-25T10:57:24.208Z,9.01
2022-12-25T10:59:58.706Z,9.06
2022-12-25T11:02:34.445Z,9.06
2022-12-25T11:05:02.926Z,9.05
2022-12-25T11:07:30.390Z,9.09
2022-12-25T11:10:05.527Z,9.11
2022-12-25T11:12:37.042Z,9.13
2022-12-25T11:15:26.788Z,9.13
2022-12-25T11:17:53.317Z,9.13
2022-12-25T11:20:20.872Z,9.15
2022-12-25T11:22:49.670Z,9.13
2022-12-25T11:25:24.305Z,9.16
2022-12-25T11:28:04.863Z,9.19
2022-12-25T11:30:33.602Z,9.19
2022-12-25T11:33:05.040Z,9.18
2022-12-25T11:35:42.916Z,9.22
2022-12-25T11:38:09.624Z,9.27
2022-12-25T11:40:44.584Z,9.28
2022-12-25T11:43:29.263Z,9.30
2022-12-25T11:46:14.878Z,9.31
2022-12-25T11:48:46.119Z,9.32
2022-12-25T11:51:15.492Z,9.31
2022-12-25T11:53:45.547Z,9.29
2022-12-25T11:56:17.944Z,9.25
2022-12-25T11:58:48.709Z,9.28
2022-12-25T12:01:42.463Z,9.29
2022-12-25T12:04:36.861Z,9.29
2022-12-25T12:07:25.709Z,9.29
2022-12-25T12:10:15.030Z,9.26
2022-12-25T12:13:08.474Z,9.26
2022-12-25T12:15:43.783Z,9.25
2022-12-25T12:18:19.271Z,9.28
2022-12-25T12:20:57.050Z,9.27
2022-12-25T12:23:23.790Z,9.26
2022-12-25T12:25:50.850Z,9.25
2022-12-25T12:28:24.512Z,9.25
2022-12-25T12:31:05.884Z,9.26
2022-12-25T12:33:38.197Z,9.26
2022-12-25T12:36:06.144Z,9.27
2022-12-25T12:38:34.998Z,9.28
2022-12-25T12:41:04.951Z,9.31
2022-12-25T12:43:36.480Z,9.29
2022-12-25T12:46:08.447Z,9.34
2022-12-25T12:48:41.443Z,9.38
2022-12-25T12:51:11.576Z,9.33
2022-12-25T12:53:40.912Z,9.37
2022-12-25T12:56:15.330Z,9.39
2022-12-25T12:58:48.284Z,9.40
2022-12-25T13:01:23.865Z,9.41
2022-12-25T13:03:59.354Z,9.40
2022-12-25T13:06:41.049Z,9.40
2022-12-25T13:09:45.150Z,9.38
2022-12-25T13:12:13.029Z,9.39
2022-12-25T13:14:45.687Z,9.40
2022-12-25T13:17:17.363Z,9.43
2022-12-25T13:19:45.060Z,9.42
2022-12-25T13:22:24.577Z,9.45
2022-12-25T13:25:01.749Z,9.46
2022-12-25T13:27:30.327Z,9.47
2022-12-25T13:29:57.999Z,9.47
2022-12-25T13:32:32.012Z,9.50
2022-12-25T13:35:00.086Z,9.46
2022-12-25T13:37:29.888Z,9.47
2022-12-25T13:39:59.095Z,9.53
2022-12-25T13:42:28.416Z,9.54
2022-12-25T13:45:02.075Z,9.58
2022-12-25T13:47:38.603Z,9.58
2022-12-25T13:50:26.161Z,9.59
2022-12-25T13:52:54.599Z,9.57
2022-12-25T13:55:24.285Z,9.60
2022-12-25T13:57:53.956Z,9.63
2022-12-25T14:00:32.280Z,9.60
2022-12-25T14:02:59.491Z,9.64
2022-12-25T14:05:42.180Z,9.63
2022-12-25T14:08:26.279Z,9.64
2022-12-25T14:10:54.134Z,9.66
2022-12-25T14:13:25.674Z,9.67
2022-12-25T14:15:53.488Z,9.66
2022-12-25T14:18:22.070Z,9.66
2022-12-25T14:21:06.941Z,9.67
2022-12-25T14:23:48.619Z,9.71
2022-12-25T14:26:16.983Z,9.70
2022-12-25T14:28:48.346Z,9.65
2022-12-25T14:31:15.159Z,9.67
2022-12-25T14:33:42.011Z,9.68
2022-12-25T14:36:12.107Z,9.71
2022-12-25T14:38:41.514Z,9.66
2022-12-25T14:41:33.319Z,9.71
2022-12-25T14:44:02.724Z,9.71
2022-12-25T14:46:32.260Z,9.75
2022-12-25T14:49:06.745Z,9.76
2022-12-25T14:51:38.823Z,9.77
2022-12-25T14:54:15.736Z,9.74
2022-12-25T14:56:47.747Z,9.76
2022-12-25T14:59:18.467Z,9.79
2022-12-25T15:01:51.806Z,9.80
2022-12-25T15:04:20.560Z,9.76
2022-12-25T15:07:07.165Z,9.76
2022-12-25T15:09:35.866Z,9.78
2022-12-25T15:12:02.450Z,9.82
2022-12-25T15:14:31.074Z,9.82
2022-12-25T15:17:00.597Z,9.86
2022-12-25T15:19:36.902Z,9.88
2022-12-25T15:22:04.745Z,9.84
2022-12-25T15:24:31.268Z,9.87
2022-12-25T15:27:00.148Z,9.88
2022-12-25T15:29:59.731Z,9.85
2022-12-25T15:32:20.448Z,9.92
2022-12-25T15:34:49.593Z,9.88
2022-12-25T15:37:17.826Z,9.87
2022-12-25T15:39:44.743Z,9.86
2022-12-25T15:42:17.216Z,9.86
2022-12-25T15:44:44.616Z,9.85
2022-12-25T15:47:16.404Z,9.90
2022-12-25T15:49:43.234Z,9.91
2022-12-25T15:52:16.722Z,9.89
2022-12-25T15:54:43.549Z,9.90
2022-12-25T15:57:20.428Z,9.90
2022-12-25T15:59:47.062Z,9.95
2022-12-25T16:02:19.545Z,9.93
2022-12-25T16:04:46.816Z,9.94
2022-12-25T16:07:18.970Z,9.95
2022-12-25T16:09:45.600Z,9.94
2022-12-25T16:12:12.404Z,9.94
2022-12-25T16:14:38.964Z,9.95
2022-12-25T16:17:05.564Z,9.99
2022-12-25T16:19:32.270Z,9.99
2022-12-25T16:21:59.156Z,10.01
2022-12-25T16:24:25.690Z,9.99
2022-12-25T16:26:52.140Z,10.01
2022-12-25T16:29:18.609Z,10.04
2022-12-25T16:31:45.142Z,10.04
2022-12-25T16:34:11.649Z,10.06
2022-12-25T16:36:38.283Z,10.04
2022-12-25T16:39:05.564Z,10.03
2022-12-25T16:41:32.332Z,10.05
2022-12-25T16:43:58.785Z,10.05
2022-12-25T16:46:25.340Z,10.09
2022-12-25T16:48:51.833Z,10.07
2022-12-25T16:51:20.263Z,10.11
2022-12-25T16:53:47.276Z,10.09
2022-12-25T16:56:16.551Z,10.10
2022-12-25T16:58:46.474Z,10.10
2022-12-25T17:01:17.206Z,10.11
2022-12-25T17:03:44.387Z,10.14
2022-12-25T17:06:20.530Z,10.17
2022-12-25T17:08:47.290Z,10.18
2022-12-25T17:11:14.180Z,10.21
2022-12-25T17:13:40.773Z,10.19
2022-12-25T17:16:15.916Z,10.18
2022-12-25T17:18:42.782Z,10.20
2022-12-25T17:21:09.438Z,10.19
2022-12-25T17:23:38.889Z,10.22
2022-12-25T17:26:05.797Z,10.26
2022-12-25T17:28:34.643Z,10.26
2022-12-25T17:31:08.564Z,10.28
2022-12-25T17:33:40.159Z,10.28
2022-12-25T17:36:10.752Z,10.24
2022-12-25T17:38:37.635Z,10.23
2022-12-25T17:41:06.425Z,10.23
2022-12-25T17:43:34.746Z,10.18
2022-12-25T17:46:06.934Z,10.21
2022-12-25T17:48:36.126Z,10.22
2022-12-25T17:51:08.225Z,10.23
2022-12-25T17:53:36.451Z,10.21
2022-12-25T17:56:03.362Z,10.15
2022-12-25T17:58:29.823Z,10.15
2022-12-25T18:00:56.314Z,10.17
2022-12-25T18:03:23.027Z,10.15
2022-12-25T18:05:49.610Z,10.18
2022-12-25T18:08:16.055Z,10.15
2022-12-25T18:10:43.978Z,10.12
2022-12-25T18:13:12.153Z,10.13
2022-12-25T18:15:39.949Z,10.15
2022-12-25T18:18:08.243Z,10.13
2022-12-25T18:20:39.953Z,10.13
2022-12-25T18:23:07.704Z,10.13
2022-12-25T18:25:34.276Z,10.13
2022-12-25T18:28:02.689Z,10.13
2022-12-25T18:30:29.523Z,10.10
2022-12-25T18:32:56.039Z,10.10
2022-12-25T18:35:22.641Z,10.06
2022-12-25T18:37:49.152Z,10.04
2022-12-25T18:40:15.649Z,10.07
2022-12-25T18:42:43.272Z,10.03
2022-12-25T18:45:12.618Z,10.04
2022-12-25T18:47:39.390Z,10.08
2022-12-25T18:50:07.021Z,10.09
2022-12-25T18:52:49.658Z,10.04
2022-12-25T18:55:17.887Z,10.05
2022-12-25T18:57:44.430Z,10.06
2022-12-25T19:00:11.160Z,10.04
2022-12-25T19:02:37.769Z,10.01
2022-12-25T19:05:05.614Z,10.02
2022-12-25T19:07:32.130Z,10.01
2022-12-25T19:09:58.580Z,10.01
2022-12-25T19:12:25.054Z,10.00
2022-12-25T19:14:51.714Z,10.00
2022-12-25T19:17:18.715Z,10.00
2022-12-25T19:19:45.851Z,10.01
2022-12-25T19:22:12.516Z,10.00
2022-12-25T19:24:38.994Z,10.00
2022-12-25T19:27:05.924Z,9.98
2022-12-25T19:29:32.673Z,9.99
2022-12-25T19:31:59.252Z,10.01
2022-12-25T19:34:25.851Z,10.05
2022-12-25T19:36:52.382Z,10.00
2022-12-25T19:39:18.892Z,10.03
2022-12-25T19:41:45.421Z,10.03
2022-12-25T19:44:11.931Z,10.04
2022-12-25T19:46:40.735Z,10.05
2022-12-25T19:49:11.306Z,10.03
2022-12-25T19:51:42.127Z,10.14
2022-12-25T19:54:14.286Z,10.25
2022-12-25T19:56:41.907Z,10.40
2022-12-25T19:59:08.420Z,10.53
2022-12-25T20:01:34.967Z,10.54
2022-12-25T20:04:01.751Z,10.56
2022-12-25T20:06:32.262Z,10.56
2022-12-25T20:09:15.066Z,10.44
2022-12-25T20:11:43.407Z,10.35
2022-12-25T20:14:12.557Z,10.32
2022-12-25T20:16:40.233Z,10.27
2022-12-25T20:19:07.213Z,10.26
2022-12-25T20:21:33.799Z,10.22
2022-12-25T20:24:00.279Z,10.17
2022-12-25T20:26:29.596Z,10.14
2022-12-25T20:28:57.064Z,10.11
2022-12-25T20:31:27.431Z,10.08
2022-12-25T20:33:55.767Z,10.08
2022-12-25T20:36:22.761Z,10.06
2022-12-25T20:38:49.289Z,10.04
2022-12-25T20:41:28.787Z,10.03
2022-12-25T20:43:56.703Z,10.02
2022-12-25T20:46:24.171Z,10.01
2022-12-25T20:48:51.860Z,10.04
2022-12-25T20:51:21.829Z,10.08
2022-12-25T20:53:48.912Z,10.05
2022-12-25T20:56:18.260Z,10.01
2022-12-25T20:58:45.076Z,10.03
2022-12-25T21:01:14.502Z,10.02
2022-12-25T21:03:41.463Z,10.03
2022-12-25T21:06:08.918Z,10.03
2022-12-25T21:08:36.324Z,10.00
2022-12-25T21:11:04.202Z,9.99
2022-12-25T21:13:36.488Z,10.00
2022-12-25T21:16:08.541Z,10.00
2022-12-25T21:18:35.593Z,9.99
2022-12-25T21:21:05.730Z,9.98
2022-12-25T21:23:36.932Z,9.99
2022-12-25T21:26:16.804Z,9.96
2022-12-25T21:28:43.296Z,9.94
2022-12-25T21:31:10.323Z,9.94
2022-12-25T21:33:52.398Z,9.94
2022-12-25T21:36:28.282Z,9.93
2022-12-25T21:38:57.533Z,9.94
2022-12-25T21:41:25.085Z,9.93
2022-12-25T21:43:51.594Z,9.91
2022-12-25T21:46:18.675Z,9.92
2022-12-25T21:48:45.794Z,9.89
2022-12-25T21:51:34.362Z,9.94
2022-12-25T21:54:01.640Z,9.93
2022-12-25T21:56:34.382Z,9.96
2022-12-25T21:59:05.379Z,10.08
2022-12-25T22:01:31.916Z,10.11
2022-12-25T22:04:06.397Z,10.29
2022-12-25T22:06:52.340Z,10.29
2022-12-25T22:09:19.354Z,10.28
2022-12-25T22:12:04.270Z,10.33
2022-12-25T22:14:52.215Z,10.28
2022-12-25T22:17:42.040Z,10.25
2022-12-25T22:20:11.297Z,10.27
2022-12-25T22:22:37.781Z,10.29
2022-12-25T22:25:05.515Z,10.29
2022-12-25T22:27:34.706Z,10.26
2022-12-25T22:30:01.987Z,10.25
2022-12-25T22:32:28.608Z,10.23
2022-12-25T22:34:55.186Z,10.22
2022-12-25T22:37:21.836Z,10.18
2022-12-25T22:39:48.559Z,10.17
2022-12-25T22:42:15.785Z,10.13
2022-12-25T22:44:42.395Z,10.12
2022-12-25T22:47:09.070Z,10.11
2022-12-25T22:49:35.671Z,10.10
2022-12-25T22:52:02.482Z,10.13
2022-12-25T22:54:31.132Z,10.10
2022-12-25T22:56:58.506Z,10.10
2022-12-25T22:59:25.195Z,10.12
2022-12-25T23:01:51.846Z,10.19
2022-12-25T23:04:18.523Z,10.28
2022-12-25T23:06:46.446Z,10.39
2022-12-25T23:09:24.119Z,10.38
2022-12-25T23:11:51.249Z,10.36
2022-12-25T23:14:36.266Z,10.39
2022-12-25T23:17:02.856Z,10.37
2022-12-25T23:19:47.995Z,10.40
2022-12-25T23:22:33.496Z,10.34
2022-12-25T23:25:18.188Z,10.38
2022-12-25T23:27:45.921Z,10.30
2022-12-25T23:30:14.323Z,10.26
2022-12-25T23:32:41.240Z,10.38
2022-12-25T23:35:08.202Z,10.41
2022-12-25T23:37:34.741Z,10.42
2022-12-25T23:40:01.249Z,10.40
2022-12-25T23:42:27.740Z,10.33
2022-12-25T23:44:54.302Z,10.31
2022-12-25T23:47:20.799Z,10.39
2022-12-25T23:49:47.254Z,10.37
2022-12-25T23:52:13.979Z,10.34
2022-12-25T23:54:40.505Z,10.32
2022-12-25T23:57:07.111Z,10.27
2022-12-25T23:59:33.593Z,10.28
